Time;durP1;ratioP1;P1;durP2;ratioP2;P2;SDS_P1;SDS_P2;PMS_P1;PMS_P2;Temp;Humidity;BMP_temperature;BMP_pressure;BME280_temperature;BME280_humidity;BME280_pressure;Samples;Min_cycle;Max_cycle;Signal;HPM_P1;HPM_P2
2022/10/08 00:01:57;;;;;;;23.00;19.17;;;16.00;99.90;;;;;;5027752;28;20508;-85
2022/10/08 00:04:28;;;;;;;24.20;19.77;;;16.00;99.90;;;;;;5020806;28;20470;-86
2022/10/08 00:06:58;;;;;;;27.47;20.50;;;15.90;99.90;;;;;;5024472;28;20525;-86
2022/10/08 00:09:26;;;;;;;24.03;18.37;;;15.80;99.90;;;;;;5025195;28;20520;-86
2022/10/08 00:11:56;;;;;;;22.03;19.77;;;15.70;99.90;;;;;;5030731;28;20565;-87
2022/10/08 00:14:23;;;;;;;26.37;19.83;;;15.70;99.90;;;;;;5023504;28;20482;-86
2022/10/08 00:16:50;;;;;;;26.63;21.20;;;15.70;99.90;;;;;;5022704;28;20458;-86
2022/10/08 00:19:19;;;;;;;23.77;20.07;;;15.70;99.90;;;;;;5019054;28;20621;-87
2022/10/08 00:21:49;;;;;;;19.43;17.50;;;15.60;99.90;;;;;;5031468;28;20431;-87
2022/10/08 00:24:20;;;;;;;22.47;17.90;;;15.60;99.90;;;;;;5039097;28;20872;-87
2022/10/08 00:26:47;;;;;;;20.10;18.00;;;15.60;99.90;;;;;;5035666;28;20446;-87
2022/10/08 00:29:18;;;;;;;21.83;19.50;;;15.50;99.90;;;;;;5027513;28;20503;-86
2022/10/08 00:31:46;;;;;;;21.57;18.00;;;15.40;99.90;;;;;;5026737;28;20490;-86
2022/10/08 00:34:15;;;;;;;19.90;17.90;;;15.40;99.90;;;;;;5019789;28;20505;-86
2022/10/08 00:36:42;;;;;;;21.43;19.30;;;15.40;99.90;;;;;;5007288;28;20454;-86
2022/10/08 00:39:13;;;;;;;22.20;17.60;;;15.40;99.90;;;;;;5004920;28;21017;-86
2022/10/08 00:41:45;;;;;;;21.40;19.00;;;15.40;99.90;;;;;;5004481;28;20455;-86
2022/10/08 00:44:53;;;;;;;24.57;19.37;;;15.30;99.90;;;;;;5004036;28;20506;-87
2022/10/08 00:47:31;;;;;;;21.23;19.13;;;15.30;99.90;;;;;;5003359;28;20502;-85
2022/10/08 00:49:59;;;;;;;23.23;19.67;;;15.10;99.90;;;;;;5037826;23;20588;-87
2022/10/08 00:52:31;;;;;;;21.43;18.50;;;15.10;99.90;;;;;;5011552;28;20493;-87
2022/10/08 00:54:58;;;;;;;25.00;20.20;;;15.10;99.90;;;;;;5012251;28;21133;-87
2022/10/08 00:57:26;;;;;;;24.50;20.63;;;15.10;99.90;;;;;;5012400;28;20458;-87
2022/10/08 00:59:53;;;;;;;23.07;20.67;;;15.00;99.90;;;;;;5013434;28;21001;-87
2022/10/08 01:02:20;;;;;;;23.50;20.10;;;15.00;99.90;;;;;;5012341;28;20451;-87
2022/10/08 01:04:47;;;;;;;22.03;19.73;;;15.00;99.90;;;;;;5012338;28;20453;-86
2022/10/08 01:07:22;;;;;;;21.53;19.30;;;15.00;99.90;;;;;;5018996;28;20453;-87
2022/10/08 01:09:55;;;;;;;24.13;19.97;;;14.90;99.90;;;;;;5018487;28;20466;-87
2022/10/08 01:12:33;;;;;;;21.67;19.57;;;14.90;99.90;;;;;;5012233;28;20490;-87
2022/10/08 01:15:07;;;;;;;24.57;22.07;;;15.00;99.90;;;;;;5030604;28;20464;-87
2022/10/08 01:17:43;;;;;;;22.90;20.60;;;15.00;99.90;;;;;;5028264;28;20457;-86
2022/10/08 01:20:28;;;;;;;23.93;19.63;;;14.90;99.90;;;;;;5011998;28;20462;-87
2022/10/08 01:23:21;;;;;;;22.23;19.93;;;14.90;99.90;;;;;;5015733;28;20474;-87
2022/10/08 01:25:56;;;;;;;22.10;19.77;;;14.90;99.90;;;;;;5026845;28;20423;-86
2022/10/08 01:28:31;;;;;;;23.17;20.77;;;14.90;99.90;;;;;;5039923;28;20449;-87
2022/10/08 01:31:05;;;;;;;26.33;21.23;;;14.90;99.90;;;;;;5017163;28;20975;-87
2022/10/08 01:33:35;;;;;;;21.83;18.67;;;14.90;99.90;;;;;;5016306;28;20821;-86
2022/10/08 01:36:04;;;;;;;23.93;20.40;;;15.00;99.90;;;;;;5015774;28;20457;-87
2022/10/08 01:38:34;;;;;;;24.03;20.90;;;15.00;99.90;;;;;;5021470;28;20451;-87
2022/10/08 01:41:05;;;;;;;22.80;20.27;;;15.00;99.90;;;;;;5017398;28;20469;-87
2022/10/08 01:43:38;;;;;;;24.20;20.33;;;15.00;99.90;;;;;;5015728;28;20778;-87
2022/10/08 01:46:10;;;;;;;22.70;18.23;;;14.90;99.90;;;;;;5014838;28;20459;-87
2022/10/08 01:48:40;;;;;;;22.97;20.30;;;14.90;99.90;;;;;;5015427;28;20478;-87
2022/10/08 01:51:12;;;;;;;21.83;19.53;;;14.90;99.90;;;;;;5014762;28;20490;-87
2022/10/08 01:53:42;;;;;;;21.00;18.80;;;14.90;99.90;;;;;;5015217;28;20810;-87
2022/10/08 01:56:13;;;;;;;26.03;19.47;;;14.90;99.90;;;;;;5016246;28;20513;-86
2022/10/08 01:58:48;;;;;;;21.87;19.57;;;15.00;99.90;;;;;;5015332;28;20450;-87
2022/10/08 02:01:22;;;;;;;26.53;19.53;;;15.00;99.90;;;;;;5014753;28;20490;-87
2022/10/08 02:06:35;;;;;;;22.73;19.27;;;15.00;99.90;;;;;;5016683;28;20432;-87
2022/10/08 02:09:03;;;;;;;24.37;20.40;;;15.00;99.90;;;;;;5038514;28;20452;-87
2022/10/08 02:11:30;;;;;;;22.70;20.23;;;15.00;99.90;;;;;;5027057;28;20482;-87
2022/10/08 02:13:58;;;;;;;26.53;22.53;;;15.10;99.90;;;;;;5023471;28;20450;-87
2022/10/08 02:16:28;;;;;;;27.73;21.07;;;15.00;99.90;;;;;;5021436;28;20469;-87
2022/10/08 02:18:58;;;;;;;28.80;21.20;;;15.00;99.90;;;;;;5015202;28;20451;-87
2022/10/08 02:21:28;;;;;;;24.13;20.60;;;15.00;99.90;;;;;;5015069;28;20454;-87
2022/10/08 02:24:04;;;;;;;25.30;21.80;;;15.00;99.90;;;;;;5016996;28;20823;-87
2022/10/08 02:26:39;;;;;;;25.90;21.50;;;15.00;99.90;;;;;;5014199;28;20473;-87
2022/10/08 02:29:14;;;;;;;26.30;20.77;;;15.00;99.90;;;;;;5014863;28;20460;-87
2022/10/08 02:31:46;;;;;;;23.43;20.90;;;15.00;99.90;;;;;;5014487;28;20490;-87
2022/10/08 02:34:19;;;;;;;23.53;20.20;;;15.00;99.90;;;;;;5013945;28;20943;-87
2022/10/08 02:36:49;;;;;;;34.07;23.13;;;15.10;99.90;;;;;;5014114;28;20983;-87
2022/10/08 02:39:17;;;;;;;23.40;20.90;;;15.10;99.90;;;;;;5014126;28;20473;-87
2022/10/08 02:41:48;;;;;;;28.53;21.93;;;15.00;99.90;;;;;;5013890;28;20526;-87
2022/10/08 02:44:23;;;;;;;23.23;20.13;;;15.00;99.90;;;;;;5014175;28;20478;-87
2022/10/08 02:46:54;;;;;;;22.23;19.53;;;15.10;99.90;;;;;;5025996;28;20437;-87
2022/10/08 02:49:26;;;;;;;25.70;20.70;;;15.10;99.90;;;;;;5034216;28;20489;-87
2022/10/08 02:51:55;;;;;;;22.40;20.00;;;15.10;99.90;;;;;;5037463;28;20484;-86
2022/10/08 02:54:23;;;;;;;27.10;20.10;;;15.10;99.90;;;;;;5032390;28;20490;-86
2022/10/08 02:56:55;;;;;;;23.30;20.80;;;15.00;99.90;;;;;;5031132;28;20446;-86
2022/10/08 02:59:25;;;;;;;23.30;20.70;;;14.90;99.90;;;;;;5022588;28;20502;-87
2022/10/08 03:01:56;;;;;;;23.47;21.00;;;15.00;99.90;;;;;;5014734;28;20543;-87
2022/10/08 03:04:27;;;;;;;24.40;21.57;;;15.00;99.90;;;;;;5014025;28;20458;-86
2022/10/08 03:06:56;;;;;;;20.70;18.80;;;15.00;99.90;;;;;;5013555;28;20449;-85
2022/10/08 03:09:25;;;;;;;25.40;21.47;;;15.00;99.90;;;;;;5013910;28;20472;-88
2022/10/08 03:11:54;;;;;;;27.00;19.90;;;15.10;99.90;;;;;;5019485;28;20485;-86
2022/10/08 03:14:24;;;;;;;22.70;19.67;;;15.10;99.90;;;;;;5018517;28;20502;-85
2022/10/08 03:16:52;;;;;;;23.70;19.43;;;15.20;99.90;;;;;;5021427;28;20430;-87
2022/10/08 03:19:20;;;;;;;21.50;19.30;;;15.10;99.90;;;;;;5024827;28;20442;-85
2022/10/08 03:21:50;;;;;;;23.83;21.27;;;15.10;99.90;;;;;;5021082;28;20432;-86
2022/10/08 03:24:17;;;;;;;22.80;20.60;;;15.10;99.90;;;;;;5007328;28;20441;-86
2022/10/08 03:26:43;;;;;;;24.00;19.73;;;15.10;99.90;;;;;;5002071;28;20448;-86
2022/10/08 03:29:11;;;;;;;23.97;19.47;;;15.10;99.90;;;;;;5003033;28;20543;-85
2022/10/08 03:31:39;;;;;;;23.83;19.90;;;15.20;99.90;;;;;;5003943;28;20475;-86
2022/10/08 03:34:05;;;;;;;25.80;19.93;;;15.30;99.90;;;;;;5003464;28;20520;-86
2022/10/08 03:36:32;;;;;;;25.77;20.23;;;15.30;99.90;;;;;;5005164;28;20810;-86
2022/10/08 03:38:59;;;;;;;23.23;20.40;;;15.30;99.90;;;;;;5003165;28;20438;-86
2022/10/08 03:41:26;;;;;;;22.80;20.40;;;15.20;99.90;;;;;;5004272;28;20440;-86
2022/10/08 03:43:53;;;;;;;20.53;18.43;;;15.30;99.90;;;;;;5001318;28;20455;-86
2022/10/08 03:46:19;;;;;;;23.47;19.37;;;15.30;99.90;;;;;;4995819;28;20447;-87
2022/10/08 03:48:49;;;;;;;24.37;17.30;;;15.30;99.90;;;;;;4993657;28;20452;-86
2022/10/08 03:51:17;;;;;;;24.43;18.67;;;15.30;99.90;;;;;;4993255;28;20486;-87
2022/10/08 03:53:44;;;;;;;21.10;18.60;;;15.40;99.90;;;;;;4993853;28;20458;-87
2022/10/08 03:56:13;;;;;;;21.53;19.43;;;15.40;99.90;;;;;;4994604;28;20458;-87
2022/10/08 03:58:40;;;;;;;20.67;18.23;;;15.40;99.90;;;;;;4995383;28;20435;-87
2022/10/08 04:01:08;;;;;;;21.10;19.00;;;15.50;99.90;;;;;;4993665;28;20475;-87
2022/10/08 04:03:36;;;;;;;19.17;17.37;;;15.50;99.90;;;;;;4993800;28;20455;-85
2022/10/08 04:06:05;;;;;;;21.10;17.30;;;15.50;99.90;;;;;;4993792;28;20455;-87
2022/10/08 04:08:33;;;;;;;20.50;18.50;;;15.60;99.90;;;;;;4992913;28;20459;-87
2022/10/08 04:11:03;;;;;;;20.23;18.00;;;15.50;99.90;;;;;;4992785;28;20463;-87
2022/10/08 04:13:30;;;;;;;21.00;17.30;;;15.60;99.90;;;;;;4993020;28;20448;-87
2022/10/08 04:16:01;;;;;;;22.00;17.97;;;15.60;99.90;;;;;;4992770;28;20452;-87
2022/10/08 04:18:27;;;;;;;21.60;19.50;;;15.50;99.90;;;;;;4992723;28;20447;-87
2022/10/08 04:20:57;;;;;;;20.10;18.00;;;15.60;99.90;;;;;;4992653;28;20473;-87
2022/10/08 04:23:25;;;;;;;19.97;18.07;;;15.50;99.90;;;;;;4997929;28;20511;-86
2022/10/08 04:25:52;;;;;;;18.77;16.83;;;15.50;99.90;;;;;;4993435;28;20458;-87
2022/10/08 04:28:20;;;;;;;21.83;16.80;;;15.50;99.90;;;;;;4992578;28;20452;-87
2022/10/08 04:30:56;;;;;;;19.40;17.40;;;15.50;99.90;;;;;;4992950;28;20464;-87
2022/10/08 04:33:22;;;;;;;19.50;16.73;;;15.50;99.90;;;;;;5013912;28;20545;-87
2022/10/08 04:35:49;;;;;;;19.73;17.67;;;15.60;99.90;;;;;;5016663;28;20462;-87
2022/10/08 04:38:16;;;;;;;19.33;17.23;;;15.60;99.90;;;;;;5014732;28;20462;-87
2022/10/08 04:40:44;;;;;;;17.67;15.97;;;15.60;99.90;;;;;;4994692;28;20467;-87
2022/10/08 04:43:11;;;;;;;20.57;17.43;;;15.70;99.90;;;;;;4995733;28;20444;-87
2022/10/08 04:45:43;;;;;;;19.93;16.73;;;15.70;99.90;;;;;;4993196;28;20451;-87
2022/10/08 04:48:09;;;;;;;19.93;17.80;;;15.70;99.90;;;;;;4992873;28;20447;-87
2022/10/08 04:50:36;;;;;;;20.07;18.03;;;15.70;99.90;;;;;;4991694;28;20487;-87
2022/10/08 04:53:03;;;;;;;20.07;18.07;;;15.70;99.90;;;;;;4991800;28;20943;-87
2022/10/08 04:55:29;;;;;;;21.30;18.47;;;15.60;99.90;;;;;;4991434;28;20451;-87
2022/10/08 04:57:58;;;;;;;24.23;20.03;;;15.60;99.90;;;;;;4995252;28;20944;-86
2022/10/08 05:00:24;;;;;;;20.30;18.30;;;15.60;99.90;;;;;;4995441;28;20471;-87
2022/10/08 05:02:51;;;;;;;20.40;17.07;;;15.60;99.90;;;;;;4997436;28;20447;-87
2022/10/08 05:05:22;;;;;;;25.27;18.47;;;15.60;99.90;;;;;;5017012;28;20466;-88
2022/10/08 05:07:49;;;;;;;20.17;18.03;;;15.60;99.90;;;;;;5009002;28;20448;-87
2022/10/08 05:10:16;;;;;;;21.07;18.83;;;15.60;99.90;;;;;;5006870;28;20472;-88
2022/10/08 05:12:43;;;;;;;21.10;18.40;;;15.60;99.90;;;;;;5020264;28;20487;-87
2022/10/08 05:15:11;;;;;;;20.00;18.00;;;15.50;99.90;;;;;;4998757;28;20475;-87
2022/10/08 05:17:38;;;;;;;21.33;18.70;;;15.50;99.90;;;;;;4996202;28;20451;-87
2022/10/08 05:20:05;;;;;;;20.50;18.40;;;15.40;99.90;;;;;;4996306;28;20887;-87
2022/10/08 05:22:32;;;;;;;23.80;20.17;;;15.40;99.90;;;;;;4996366;28;20447;-87
2022/10/08 05:24:58;;;;;;;22.40;19.17;;;15.40;99.90;;;;;;4996552;28;20455;-87
2022/10/08 05:27:25;;;;;;;22.97;18.80;;;15.40;99.90;;;;;;5010088;28;20455;-87
2022/10/08 05:29:52;;;;;;;22.80;18.60;;;15.40;99.90;;;;;;5002349;28;20478;-88
2022/10/08 05:32:20;;;;;;;21.67;19.40;;;15.40;99.90;;;;;;4999652;28;20490;-87
2022/10/08 05:34:47;;;;;;;22.73;19.20;;;15.50;99.90;;;;;;4998823;28;20455;-87
2022/10/08 05:37:13;;;;;;;23.07;19.47;;;15.40;99.90;;;;;;4996046;28;20937;-86
2022/10/08 05:39:40;;;;;;;24.47;18.33;;;15.30;99.90;;;;;;4995960;28;20459;-87
2022/10/08 05:42:07;;;;;;;21.30;19.10;;;15.30;99.90;;;;;;4997136;28;20451;-87
2022/10/08 05:44:33;;;;;;;22.17;19.90;;;15.20;99.90;;;;;;5000928;28;20439;-87
2022/10/08 05:47:00;;;;;;;21.70;19.50;;;15.10;99.90;;;;;;4995621;28;20443;-87
2022/10/08 05:49:28;;;;;;;20.93;17.60;;;15.10;99.90;;;;;;4995726;28;20482;-87
2022/10/08 05:51:55;;;;;;;21.70;19.40;;;15.10;99.90;;;;;;4995691;28;20513;-87
2022/10/08 05:54:21;;;;;;;21.03;19.00;;;15.00;99.90;;;;;;5010205;28;20454;-88
2022/10/08 05:56:48;;;;;;;20.93;18.83;;;15.00;99.90;;;;;;5018647;28;20439;-89
2022/10/08 05:59:17;;;;;;;23.50;20.60;;;15.00;99.90;;;;;;5000246;28;20474;-87
2022/10/08 06:01:44;;;;;;;22.43;20.13;;;15.00;99.90;;;;;;4995663;28;20825;-88
2022/10/08 06:04:12;;;;;;;22.43;19.30;;;15.00;99.90;;;;;;5003966;28;20454;-88
2022/10/08 06:06:41;;;;;;;23.23;19.60;;;15.00;99.90;;;;;;5013686;28;20842;-87
2022/10/08 06:09:10;;;;;;;22.97;20.03;;;15.00;99.90;;;;;;5012221;28;20451;-88
2022/10/08 06:11:38;;;;;;;22.43;20.13;;;15.10;99.90;;;;;;5014256;28;20971;-88
2022/10/08 06:14:06;;;;;;;25.10;20.40;;;15.00;99.90;;;;;;5014718;28;20489;-88
2022/10/08 06:16:34;;;;;;;19.83;17.93;;;15.10;99.90;;;;;;5014429;28;20447;-89
2022/10/08 06:19:02;;;;;;;24.97;21.23;;;15.10;99.90;;;;;;5016665;28;20446;-86
2022/10/08 06:21:29;;;;;;;26.03;20.30;;;15.10;99.90;;;;;;5018168;28;20434;-85
2022/10/08 06:23:59;;;;;;;23.00;20.47;;;15.20;99.90;;;;;;5009623;28;20439;-85
2022/10/08 06:26:29;;;;;;;22.63;19.80;;;15.30;99.90;;;;;;5007323;28;20452;-85
2022/10/08 06:28:55;;;;;;;23.53;18.40;;;15.30;99.90;;;;;;5017836;28;20435;-86
2022/10/08 06:31:22;;;;;;;26.67;19.63;;;15.30;99.90;;;;;;5013700;28;20937;-85
2022/10/08 06:33:49;;;;;;;24.03;19.90;;;15.40;99.90;;;;;;5017323;28;20483;-85
2022/10/08 06:36:17;;;;;;;24.10;20.10;;;15.40;99.90;;;;;;5015085;28;20454;-85
2022/10/08 06:38:48;;;;;;;25.03;21.67;;;15.40;99.90;;;;;;5007048;28;20435;-85
2022/10/08 06:41:16;;;;;;;24.83;18.70;;;15.50;99.90;;;;;;5016538;28;20466;-85
2022/10/08 06:43:43;;;;;;;24.40;18.50;;;15.50;99.90;;;;;;5021571;28;20444;-86
2022/10/08 06:46:10;;;;;;;20.20;17.87;;;15.50;99.90;;;;;;5004492;28;20451;-85
2022/10/08 06:48:36;;;;;;;19.87;17.60;;;15.60;99.90;;;;;;5015616;28;20442;-86
2022/10/08 06:51:05;;;;;;;21.83;17.03;;;15.70;99.90;;;;;;5016408;28;20473;-85
2022/10/08 06:53:34;;;;;;;18.23;16.07;;;15.70;99.90;;;;;;5021212;28;20481;-85
2022/10/08 06:56:02;;;;;;;20.30;15.47;;;15.70;99.90;;;;;;5016188;28;20438;-85
2022/10/08 06:58:30;;;;;;;18.93;16.30;;;15.70;99.90;;;;;;5017358;28;20442;-82
2022/10/08 07:01:05;;;;;;;19.00;15.50;;;15.70;99.90;;;;;;5009465;28;20501;-83
2022/10/08 07:03:31;;;;;;;17.83;14.27;;;15.80;99.90;;;;;;5012121;28;20431;-81
2022/10/08 07:06:00;;;;;;;15.90;12.83;;;15.80;99.90;;;;;;5042997;28;20442;-83
2022/10/08 07:08:27;;;;;;;18.23;14.33;;;15.90;99.90;;;;;;5033717;28;20438;-84
2022/10/08 07:10:54;;;;;;;14.70;12.87;;;15.90;99.90;;;;;;5007529;28;20994;-87
2022/10/08 07:13:20;;;;;;;19.57;12.73;;;16.00;99.90;;;;;;5010213;28;20472;-86
2022/10/08 07:15:48;;;;;;;14.30;11.70;;;16.10;99.90;;;;;;5012389;28;20446;-86
2022/10/08 07:18:15;;;;;;;16.03;11.70;;;16.10;99.90;;;;;;5020287;28;20980;-85
2022/10/08 07:20:42;;;;;;;14.40;11.93;;;16.30;99.90;;;;;;5016362;28;20465;-86
2022/10/08 07:23:08;;;;;;;13.80;11.37;;;16.40;99.90;;;;;;5010042;28;20945;-85
2022/10/08 07:25:35;;;;;;;16.13;11.73;;;16.50;99.90;;;;;;5013221;28;20836;-85
2022/10/08 07:28:02;;;;;;;21.93;12.50;;;16.60;99.90;;;;;;5018569;28;20447;-86
2022/10/08 07:30:31;;;;;;;12.10;10.67;;;16.80;99.90;;;;;;5021157;28;20846;-85
2022/10/08 07:32:59;;;;;;;11.63;10.33;;;17.00;99.90;;;;;;5026381;28;20506;-85
2022/10/08 07:35:28;;;;;;;11.07;9.77;;;17.10;99.90;;;;;;5015118;28;20503;-86
2022/10/08 07:37:55;;;;;;;10.33;9.07;;;17.20;99.90;;;;;;5017888;28;20446;-86
2022/10/08 07:40:21;;;;;;;12.47;8.53;;;17.40;99.90;;;;;;5028216;28;20445;-86
2022/10/08 07:42:48;;;;;;;10.67;8.27;;;17.50;99.90;;;;;;5036238;28;20445;-86
2022/10/08 07:45:15;;;;;;;12.33;7.70;;;17.60;99.90;;;;;;5029028;28;20419;-85
2022/10/08 07:47:42;;;;;;;10.83;8.30;;;17.70;99.90;;;;;;5020578;28;20449;-85
2022/10/08 07:50:10;;;;;;;12.90;7.27;;;17.80;99.90;;;;;;5037618;28;20477;-85
2022/10/08 07:52:37;;;;;;;10.30;7.00;;;18.00;99.90;;;;;;5023574;28;20509;-87
2022/10/08 07:55:04;;;;;;;9.77;6.20;;;18.10;99.90;;;;;;5019951;28;22096;-86
2022/10/08 07:57:30;;;;;;;10.20;6.47;;;18.10;99.90;;;;;;5020077;28;20442;-87
2022/10/08 07:59:57;;;;;;;9.53;5.80;;;18.30;99.90;;;;;;5019492;28;20936;-84
2022/10/08 08:02:24;;;;;;;9.17;6.13;;;18.40;99.90;;;;;;5016193;28;20454;-88
2022/10/08 08:04:50;;;;;;;8.63;6.80;;;18.70;99.90;;;;;;5016650;28;20944;-86
2022/10/08 08:07:18;;;;;;;6.57;5.67;;;18.90;99.90;;;;;;5019776;28;20827;-87
2022/10/08 08:09:45;;;;;;;11.50;6.37;;;19.00;99.90;;;;;;5015665;28;20494;-87
2022/10/08 08:12:12;;;;;;;9.73;6.80;;;19.40;99.90;;;;;;5018007;28;20442;-87
2022/10/08 08:14:39;;;;;;;9.27;5.87;;;19.70;99.90;;;;;;5022666;28;20486;-84
2022/10/08 08:17:05;;;;;;;10.93;5.67;;;19.80;99.90;;;;;;5017339;28;20503;-85
2022/10/08 08:19:32;;;;;;;9.50;5.90;;;19.70;99.90;;;;;;5019345;28;20470;-85
2022/10/08 08:21:59;;;;;;;8.90;4.47;;;19.50;99.90;;;;;;5015127;28;20447;-84
2022/10/08 08:24:27;;;;;;;9.67;4.80;;;19.20;99.90;;;;;;5016453;28;20443;-84
2022/10/08 08:26:53;;;;;;;8.67;5.30;;;19.00;99.90;;;;;;5013734;28;20454;-86
2022/10/08 08:29:20;;;;;;;8.13;4.83;;;18.90;99.90;;;;;;5016245;28;20463;-85
2022/10/08 08:31:48;;;;;;;5.63;3.63;;;18.80;99.90;;;;;;5014046;28;20443;-85
2022/10/08 08:34:17;;;;;;;12.73;4.10;;;18.80;99.90;;;;;;5011275;28;20490;-85
2022/10/08 08:36:46;;;;;;;12.20;4.67;;;18.80;98.90;;;;;;5017260;28;20442;-85
2022/10/08 08:39:16;;;;;;;8.47;3.87;;;18.80;97.70;;;;;;5017370;28;20449;-85
2022/10/08 08:42:20;;;;;;;6.87;3.50;;;18.90;97.50;;;;;;5012393;28;20439;-85
2022/10/08 08:44:49;;;;;;;9.57;3.57;;;19.10;96.70;;;;;;4956352;28;20974;-85
2022/10/08 08:47:21;;;;;;;8.40;4.03;;;19.40;96.00;;;;;;5005098;28;20468;-85
2022/10/08 08:49:53;;;;;;;5.87;2.97;;;19.50;95.30;;;;;;5016756;28;20475;-85
2022/10/08 08:52:23;;;;;;;6.70;3.20;;;19.60;94.80;;;;;;5013986;28;20442;-85
2022/10/08 08:54:53;;;;;;;6.13;4.00;;;19.90;94.40;;;;;;5021916;28;20486;-87
2022/10/08 08:57:35;;;;;;;10.60;4.27;;;20.20;93.30;;;;;;5015257;28;20878;-87
2022/10/08 09:00:06;;;;;;;4.90;2.90;;;20.50;92.50;;;;;;5028993;28;20460;-85
2022/10/08 09:02:37;;;;;;;11.00;3.77;;;21.40;91.10;;;;;;5039424;28;20439;-86
2022/10/08 09:05:07;;;;;;;7.87;3.50;;;21.40;88.60;;;;;;5017961;28;20449;-81
2022/10/08 09:07:41;;;;;;;10.03;4.10;;;21.40;88.10;;;;;;5012431;28;20474;-80
2022/10/08 09:10:14;;;;;;;10.77;4.03;;;21.50;88.00;;;;;;5014318;28;20474;-82
2022/10/08 09:12:43;;;;;;;10.00;3.03;;;21.50;87.00;;;;;;5009946;28;20649;-81
2022/10/08 09:15:18;;;;;;;5.17;2.80;;;21.80;85.90;;;;;;5009490;28;20448;-84
2022/10/08 09:17:48;;;;;;;10.43;4.07;;;22.10;85.50;;;;;;5013997;28;20435;-84
2022/10/08 09:20:16;;;;;;;7.77;3.27;;;22.70;83.70;;;;;;5016872;28;20803;-83
2022/10/08 09:22:45;;;;;;;9.07;3.60;;;23.30;80.80;;;;;;5026490;28;20426;-86
2022/10/08 09:25:15;;;;;;;8.03;3.50;;;23.10;78.40;;;;;;5004535;28;20471;-85
2022/10/08 09:27:49;;;;;;;9.67;3.17;;;22.90;78.90;;;;;;4994702;28;20446;-86
2022/10/08 09:30:35;;;;;;;10.73;3.80;;;22.60;79.30;;;;;;5021408;28;20844;-85
2022/10/08 09:33:05;;;;;;;7.93;3.50;;;22.40;79.80;;;;;;5017842;28;20445;-84
2022/10/08 09:35:33;;;;;;;7.87;3.13;;;22.30;78.90;;;;;;5028662;28;20432;-84
2022/10/08 09:38:01;;;;;;;6.77;2.60;;;22.60;79.10;;;;;;5027946;28;20439;-85
2022/10/08 09:40:28;;;;;;;9.50;3.23;;;23.50;76.30;;;;;;5041910;28;20476;-85
2022/10/08 09:43:17;;;;;;;8.97;2.87;;;24.00;74.30;;;;;;5051506;28;20441;-85
2022/10/08 09:45:46;;;;;;;7.33;3.90;;;23.70;73.70;;;;;;5056334;28;20509;-84
2022/10/08 09:48:23;;;;;;;8.23;3.13;;;23.10;74.10;;;;;;5042537;28;20453;-85
2022/10/08 09:51:00;;;;;;;8.20;3.27;;;24.10;73.40;;;;;;5036300;28;20485;-85
2022/10/08 09:53:31;;;;;;;6.07;3.97;;;26.20;67.40;;;;;;5036642;28;20483;-85
2022/10/08 09:56:00;;;;;;;6.23;3.30;;;27.10;62.70;;;;;;5042173;28;20449;-85
2022/10/08 09:58:31;;;;;;;7.90;3.63;;;27.60;60.30;;;;;;5043585;28;20437;-85
2022/10/08 10:01:01;;;;;;;9.00;3.23;;;27.00;59.20;;;;;;5009889;28;20468;-85
2022/10/08 10:03:29;;;;;;;8.70;2.73;;;26.90;59.20;;;;;;5000931;28;20484;-85
2022/10/08 10:05:58;;;;;;;8.30;2.87;;;25.60;60.50;;;;;;5005310;28;20531;-85
2022/10/08 10:08:54;;;;;;;8.57;3.90;;;24.80;61.00;;;;;;5008657;28;20998;-86
2022/10/08 10:11:27;;;;;;;6.83;3.27;;;24.10;62.90;;;;;;5001797;28;20692;-85
2022/10/08 10:14:00;;;;;;;7.87;3.30;;;23.70;64.40;;;;;;5017920;28;20492;-85
2022/10/08 10:16:32;;;;;;;9.00;3.23;;;24.80;64.60;;;;;;5002719;28;20944;-86
2022/10/08 10:19:02;;;;;;;9.63;3.80;;;26.40;60.90;;;;;;4996581;28;20453;-86
2022/10/08 10:21:37;;;;;;;5.63;2.90;;;28.40;58.00;;;;;;4996060;28;20460;-86
2022/10/08 10:24:22;;;;;;;7.10;3.50;;;30.70;53.90;;;;;;4995895;28;20450;-86
2022/10/08 10:26:52;;;;;;;7.17;3.10;;;32.00;50.20;;;;;;4996124;28;20451;-86
2022/10/08 10:29:25;;;;;;;8.00;3.63;;;30.80;49.10;;;;;;4995568;28;20574;-86
2022/10/08 10:31:58;;;;;;;6.97;3.40;;;29.30;51.30;;;;;;4995681;28;20954;-86
2022/10/08 10:34:26;;;;;;;6.67;3.73;;;29.00;53.00;;;;;;4995329;28;20490;-86
2022/10/08 10:36:57;;;;;;;8.37;3.70;;;29.20;51.80;;;;;;4995314;28;20458;-86
2022/10/08 10:39:33;;;;;;;5.60;3.00;;;27.90;53.20;;;;;;4995681;28;20469;-86
2022/10/08 10:42:08;;;;;;;8.57;4.07;;;26.80;55.20;;;;;;4995909;28;20795;-86
2022/10/08 10:44:48;;;;;;;9.50;3.80;;;25.70;56.90;;;;;;4995968;28;20470;-85
2022/10/08 10:47:17;;;;;;;6.77;3.40;;;24.80;57.90;;;;;;4996270;28;20445;-85
2022/10/08 10:49:44;;;;;;;7.13;3.43;;;24.90;59.00;;;;;;4995220;28;21058;-86
2022/10/08 10:52:32;;;;;;;6.87;3.40;;;27.20;56.10;;;;;;4996111;28;20462;-86
2022/10/08 10:55:16;;;;;;;7.00;2.93;;;28.10;52.50;;;;;;4994498;28;21054;-86
2022/10/08 10:58:08;;;;;;;5.00;2.90;;;28.30;51.30;;;;;;4997749;28;20467;-85
2022/10/08 11:00:45;;;;;;;5.90;3.50;;;27.70;51.10;;;;;;4998482;28;20467;-85
2022/10/08 11:03:20;;;;;;;7.97;3.23;;;26.50;51.70;;;;;;4995290;28;20462;-85
2022/10/08 11:05:53;;;;;;;4.53;2.40;;;28.10;52.00;;;;;;5010966;28;20449;-85
2022/10/08 11:08:32;;;;;;;6.30;2.60;;;29.40;48.20;;;;;;5005626;28;20446;-86
2022/10/08 11:11:14;;;;;;;4.03;2.90;;;31.30;46.20;;;;;;4995630;28;20840;-86
2022/10/08 11:13:53;;;;;;;9.83;3.27;;;32.80;43.30;;;;;;4994905;28;20512;-86
2022/10/08 11:16:36;;;;;;;6.80;3.00;;;33.00;42.00;;;;;;4994413;28;20465;-86
2022/10/08 11:19:05;;;;;;;7.27;2.90;;;34.00;41.10;;;;;;4995389;28;20935;-86
2022/10/08 11:21:47;;;;;;;6.50;2.93;;;34.80;39.60;;;;;;4994448;28;20464;-86
2022/10/08 11:24:39;;;;;;;4.67;2.87;;;34.50;38.40;;;;;;5008850;28;20983;-85
2022/10/08 11:27:14;;;;;;;7.53;3.33;;;34.40;38.20;;;;;;5007287;28;20476;-86
2022/10/08 11:29:48;;;;;;;6.00;2.87;;;34.70;37.80;;;;;;4994822;28;20466;-86
2022/10/08 11:32:19;;;;;;;9.57;3.07;;;34.70;37.50;;;;;;4998513;28;20457;-85
2022/10/08 11:34:52;;;;;;;8.17;3.50;;;35.40;36.10;;;;;;5015509;28;20477;-86
2022/10/08 11:37:26;;;;;;;5.93;2.83;;;34.70;36.10;;;;;;4997970;28;20885;-85
2022/10/08 11:40:00;;;;;;;7.13;4.80;;;34.00;36.80;;;;;;4994981;28;20469;-86
2022/10/08 11:42:36;;;;;;;6.77;2.63;;;34.50;36.40;;;;;;4995185;28;20466;-86
2022/10/08 11:45:29;;;;;;;8.90;3.73;;;34.10;36.70;;;;;;5003491;28;20437;-85
2022/10/08 11:47:59;;;;;;;9.17;3.77;;;33.70;36.80;;;;;;4998042;28;20456;-85
2022/10/08 11:50:31;;;;;;;6.03;2.73;;;33.70;36.60;;;;;;5003938;28;20486;-85
2022/10/08 11:53:13;;;;;;;4.30;2.70;;;34.00;36.50;;;;;;4995072;28;20461;-85
2022/10/08 11:55:47;;;;;;;6.83;2.47;;;34.40;36.80;;;;;;5005764;28;20489;-84
2022/10/08 11:58:22;;;;;;;5.10;2.40;;;33.70;35.90;;;;;;5017607;28;20439;-84
2022/10/08 12:00:52;;;;;;;6.57;2.57;;;33.40;36.80;;;;;;5000276;28;20473;-85
2022/10/08 12:03:26;;;;;;;6.70;2.27;;;33.50;36.80;;;;;;4995565;28;20461;-85
2022/10/08 12:05:58;;;;;;;6.97;2.53;;;33.10;36.60;;;;;;4997507;28;20453;-85
2022/10/08 12:08:50;;;;;;;5.40;2.70;;;32.30;37.50;;;;;;4995483;28;20451;-85
2022/10/08 12:11:48;;;;;;;6.20;2.30;;;32.60;37.70;;;;;;4994566;28;21068;-85
2022/10/08 12:14:47;;;;;;;6.53;2.70;;;33.30;36.60;;;;;;4990284;28;20873;-85
2022/10/08 12:17:15;;;;;;;5.80;2.77;;;34.00;36.00;;;;;;4994213;28;20460;-85
2022/10/08 12:20:00;;;;;;;5.93;2.93;;;33.30;36.60;;;;;;4994084;28;20482;-86
2022/10/08 12:22:44;;;;;;;9.60;2.97;;;34.00;36.40;;;;;;4994075;28;20495;-85
2022/10/08 12:25:44;;;;;;;7.03;3.17;;;34.30;35.80;;;;;;4993495;28;20447;-85
2022/10/08 12:28:51;;;;;;;5.07;2.47;;;33.30;36.60;;;;;;4994578;28;20940;-85
2022/10/08 12:31:25;;;;;;;6.20;2.90;;;31.60;38.60;;;;;;4993567;28;20468;-85
2022/10/08 12:34:01;;;;;;;8.03;2.83;;;29.50;41.30;;;;;;4993432;28;20478;-85
2022/10/08 12:36:52;;;;;;;7.40;2.80;;;27.80;42.90;;;;;;5010548;28;20457;-84
2022/10/08 12:39:30;;;;;;;5.20;3.13;;;27.10;45.30;;;;;;5010862;28;20981;-85
2022/10/08 12:42:06;;;;;;;6.33;2.77;;;26.50;47.30;;;;;;4994887;28;20446;-85
2022/10/08 12:45:02;;;;;;;6.23;2.57;;;25.50;49.10;;;;;;4994273;28;20858;-85
2022/10/08 12:47:43;;;;;;;4.90;2.20;;;25.10;49.40;;;;;;4994976;28;20455;-85
2022/10/08 12:50:32;;;;;;;8.17;2.80;;;25.10;49.80;;;;;;4994134;28;20488;-85
2022/10/08 12:53:02;;;;;;;5.10;2.17;;;25.50;49.20;;;;;;5007553;28;20440;-85
2022/10/08 12:55:30;;;;;;;4.17;2.20;;;25.60;48.70;;;;;;5010308;28;20490;-85
2022/10/08 12:57:57;;;;;;;4.27;1.73;;;26.10;47.60;;;;;;4994157;28;20459;-85
2022/10/08 13:00:28;;;;;;;5.60;2.10;;;26.30;47.00;;;;;;5005361;28;20466;-85